createdAt,value
2023-12-30T00:00:18.686Z,44.05
2023-12-30T00:01:17.064Z,43.58
2023-12-30T00:02:13.914Z,44.42
2023-12-30T00:03:10.502Z,45.33
2023-12-30T00:04:07.173Z,47.40
2023-12-30T00:05:04.490Z,45.95
2023-12-30T00:06:01.334Z,40.10
2023-12-30T00:06:58.124Z,37.88
2023-12-30T00:07:54.943Z,48.13
2023-12-30T00:08:51.640Z,49.78
2023-12-30T00:09:48.356Z,46.22
2023-12-30T00:10:45.036Z,46.42
2023-12-30T00:11:42.116Z,48.63
2023-12-30T00:12:38.746Z,41.22
2023-12-30T00:13:35.420Z,50.20
2023-12-30T00:14:32.015Z,45.55
2023-12-30T00:15:28.632Z,47.03
2023-12-30T00:16:28.711Z,57.28
2023-12-30T00:17:25.432Z,59.13
2023-12-30T00:18:22.116Z,54.47
2023-12-30T00:19:19.130Z,50.10
2023-12-30T00:20:15.867Z,58.53
2023-12-30T00:21:13.449Z,55.25
2023-12-30T00:22:10.165Z,55.40
2023-12-30T00:23:07.230Z,53.75
2023-12-30T00:24:04.457Z,56.58
2023-12-30T00:25:01.189Z,50.35
2023-12-30T00:25:57.843Z,48.90
2023-12-30T00:26:54.554Z,52.50
2023-12-30T00:27:53.080Z,51.00
2023-12-30T00:28:50.986Z,57.45
2023-12-30T00:29:47.654Z,58.33
2023-12-30T00:30:44.464Z,70.95
2023-12-30T00:31:41.465Z,77.15
2023-12-30T00:32:38.266Z,67.70
2023-12-30T00:33:35.066Z,65.65
2023-12-30T00:34:35.149Z,60.95
2023-12-30T00:35:31.888Z,57.05
2023-12-30T00:36:29.202Z,61.40
2023-12-30T00:37:25.942Z,54.78
2023-12-30T00:38:24.446Z,54.92
2023-12-30T00:39:21.514Z,56.42
2023-12-30T00:40:25.856Z,56.20
2023-12-30T00:41:24.795Z,61.08
2023-12-30T00:42:21.579Z,56.55
2023-12-30T00:43:19.037Z,67.18
2023-12-30T00:44:15.683Z,62.38
2023-12-30T00:45:12.291Z,66.13
2023-12-30T00:46:09.755Z,64.65
2023-12-30T00:47:07.269Z,59.15
2023-12-30T00:48:04.485Z,66.38
2023-12-30T00:49:01.198Z,61.50
2023-12-30T00:49:58.005Z,64.18
2023-12-30T00:50:54.661Z,62.72
2023-12-30T00:51:51.337Z,58.65
2023-12-30T00:52:48.006Z,58.92
2023-12-30T00:53:44.695Z,53.05
2023-12-30T00:54:48.025Z,52.10
2023-12-30T00:55:48.495Z,59.30
2023-12-30T00:56:45.449Z,58.92
2023-12-30T00:57:42.180Z,63.75
2023-12-30T00:58:38.867Z,54.90
2023-12-30T00:59:35.554Z,49.35
2023-12-30T01:00:32.249Z,54.75
2023-12-30T01:01:28.922Z,50.10
2023-12-30T01:02:25.766Z,59.55
2023-12-30T01:03:22.475Z,52.60
2023-12-30T01:04:19.276Z,51.40
2023-12-30T01:05:15.952Z,53.38
2023-12-30T01:06:12.645Z,60.67
2023-12-30T01:07:09.324Z,54.70
2023-12-30T01:08:06.308Z,54.20
2023-12-30T01:09:03.441Z,46.67
2023-12-30T01:10:00.061Z,42.10
2023-12-30T01:10:56.786Z,51.15
2023-12-30T01:11:53.377Z,60.35
2023-12-30T01:12:50.443Z,53.72
2023-12-30T01:13:47.097Z,43.85
2023-12-30T01:14:44.270Z,40.30
2023-12-30T01:15:41.961Z,45.83
2023-12-30T01:16:38.597Z,47.67
2023-12-30T01:17:35.433Z,57.78
2023-12-30T01:18:32.657Z,46.05
2023-12-30T01:19:29.455Z,51.08
2023-12-30T01:20:26.151Z,52.60
2023-12-30T01:21:22.966Z,48.40
2023-12-30T01:22:19.650Z,43.90
2023-12-30T01:23:16.438Z,51.88
2023-12-30T01:24:13.140Z,43.25
2023-12-30T01:25:09.943Z,51.67
2023-12-30T01:26:06.609Z,49.08
2023-12-30T01:27:03.225Z,46.88
2023-12-30T01:27:59.880Z,60.15
2023-12-30T01:28:56.565Z,49.42
2023-12-30T01:29:53.284Z,47.22
2023-12-30T01:30:50.120Z,38.83
2023-12-30T01:31:46.912Z,42.03
2023-12-30T01:32:43.973Z,45.00
2023-12-30T01:33:41.017Z,48.35
2023-12-30T01:34:37.814Z,37.90
2023-12-30T01:35:34.485Z,44.45
2023-12-30T01:36:31.663Z,46.65
2023-12-30T01:37:28.387Z,38.30
2023-12-30T01:38:25.121Z,37.50
2023-12-30T01:39:21.737Z,36.78
2023-12-30T01:40:18.411Z,42.20
2023-12-30T01:41:15.124Z,40.08
2023-12-30T01:42:12.450Z,36.33
2023-12-30T01:43:23.883Z,36.00
2023-12-30T01:44:20.521Z,38.88
2023-12-30T01:45:17.187Z,35.83
2023-12-30T01:46:14.289Z,44.45
2023-12-30T01:47:11.155Z,39.30
2023-12-30T01:48:08.006Z,43.47
2023-12-30T01:49:04.906Z,43.92
2023-12-30T01:50:01.699Z,50.25
2023-12-30T01:51:01.284Z,50.42
2023-12-30T01:51:59.077Z,41.70
2023-12-30T01:52:55.850Z,46.22
2023-12-30T01:53:53.269Z,55.17
2023-12-30T01:54:49.973Z,48.42
2023-12-30T01:55:51.086Z,48.10
2023-12-30T01:56:50.301Z,53.33
2023-12-30T01:57:47.089Z,45.65
2023-12-30T01:58:44.385Z,52.30
2023-12-30T01:59:41.384Z,43.35
2023-12-30T02:00:39.637Z,50.35
2023-12-30T02:01:36.448Z,51.70
2023-12-30T02:02:33.184Z,50.65
2023-12-30T02:03:29.995Z,43.65
2023-12-30T02:04:26.812Z,41.97
2023-12-30T02:05:23.816Z,47.38
2023-12-30T02:06:20.625Z,42.33
2023-12-30T02:07:17.274Z,51.33
2023-12-30T02:08:14.896Z,73.22
2023-12-30T02:09:11.656Z,51.17
2023-12-30T02:10:09.638Z,46.47
2023-12-30T02:11:06.405Z,42.17
2023-12-30T02:12:04.275Z,40.45
2023-12-30T02:13:01.240Z,114.25
2023-12-30T02:13:58.045Z,81.32
2023-12-30T02:14:54.765Z,40.72
2023-12-30T02:15:51.443Z,63.42
2023-12-30T02:16:48.022Z,68.22
2023-12-30T02:17:45.296Z,56.53
2023-12-30T02:18:42.089Z,46.60
2023-12-30T02:19:38.853Z,47.33
2023-12-30T02:20:35.574Z,43.17
2023-12-30T02:21:32.158Z,45.42
2023-12-30T02:22:28.837Z,45.05
2023-12-30T02:23:25.461Z,47.72
2023-12-30T02:24:22.517Z,50.10
2023-12-30T02:25:19.273Z,45.00
2023-12-30T02:26:15.976Z,43.83
2023-12-30T02:27:12.734Z,45.30
2023-12-30T02:28:09.370Z,44.90
2023-12-30T02:29:06.018Z,44.30
2023-12-30T02:30:02.757Z,42.88
2023-12-30T02:30:59.466Z,42.65
2023-12-30T02:31:56.123Z,49.25
2023-12-30T02:32:57.326Z,40.58
2023-12-30T02:33:54.129Z,50.25
2023-12-30T02:34:50.868Z,42.25
2023-12-30T02:35:48.379Z,44.58
2023-12-30T02:36:46.435Z,44.63
2023-12-30T02:37:43.118Z,47.13
2023-12-30T02:38:39.722Z,41.30
2023-12-30T02:39:36.318Z,41.92
2023-12-30T02:40:33.004Z,39.40
2023-12-30T02:41:29.703Z,38.72
2023-12-30T02:42:26.376Z,41.65
2023-12-30T02:43:25.744Z,48.08
2023-12-30T02:44:22.522Z,43.05
2023-12-30T02:45:19.199Z,44.30
2023-12-30T02:46:15.806Z,40.88
2023-12-30T02:47:12.550Z,42.90
2023-12-30T02:48:09.338Z,40.20
2023-12-30T02:49:06.568Z,37.58
2023-12-30T02:50:03.523Z,40.28
2023-12-30T02:51:00.453Z,42.75
2023-12-30T02:51:58.803Z,42.20
2023-12-30T02:52:55.545Z,32.80
2023-12-30T02:53:52.724Z,34.30
2023-12-30T02:54:49.510Z,33.72
2023-12-30T02:55:46.277Z,37.95
2023-12-30T02:56:43.435Z,34.92
2023-12-30T02:57:48.620Z,31.90
2023-12-30T02:58:54.463Z,29.05
2023-12-30T02:59:51.227Z,30.25
2023-12-30T03:00:47.902Z,29.13
2023-12-30T03:01:44.817Z,35.10
2023-12-30T03:02:42.870Z,39.28
2023-12-30T03:03:39.512Z,43.90
2023-12-30T03:04:36.328Z,30.48
2023-12-30T03:05:34.158Z,33.90
2023-12-30T03:06:30.980Z,27.38
2023-12-30T03:07:27.666Z,33.92
2023-12-30T03:08:24.301Z,32.90
2023-12-30T03:09:20.944Z,33.58
2023-12-30T03:10:17.838Z,32.22
2023-12-30T03:11:14.727Z,26.65
2023-12-30T03:12:11.356Z,28.23
2023-12-30T03:13:08.122Z,32.38
2023-12-30T03:14:05.874Z,28.23
2023-12-30T03:15:02.502Z,28.50
2023-12-30T03:15:59.278Z,33.70
2023-12-30T03:16:56.011Z,28.88
2023-12-30T03:17:52.721Z,24.50
2023-12-30T03:18:49.562Z,26.05
2023-12-30T03:19:46.536Z,22.70
2023-12-30T03:20:43.785Z,28.60
2023-12-30T03:21:40.412Z,30.88
2023-12-30T03:22:37.068Z,30.85
2023-12-30T03:23:34.844Z,26.80
2023-12-30T03:24:31.452Z,28.92
2023-12-30T03:25:28.125Z,41.25
2023-12-30T03:26:24.837Z,31.98
2023-12-30T03:27:21.485Z,29.77
2023-12-30T03:28:18.844Z,31.45
2023-12-30T03:29:15.619Z,28.58
2023-12-30T03:30:12.670Z,29.90
2023-12-30T03:31:09.373Z,38.35
2023-12-30T03:32:06.052Z,34.83
2023-12-30T03:33:03.052Z,35.90
2023-12-30T03:34:00.002Z,33.30
2023-12-30T03:34:56.660Z,29.77
2023-12-30T03:35:53.882Z,31.88
2023-12-30T03:36:50.570Z,30.48
2023-12-30T03:37:47.180Z,37.88
2023-12-30T03:38:43.933Z,52.38
2023-12-30T03:39:40.530Z,68.60
2023-12-30T03:40:37.228Z,36.55
2023-12-30T03:41:33.958Z,36.67
2023-12-30T03:42:30.669Z,35.95
2023-12-30T03:43:27.409Z,40.53
2023-12-30T03:44:24.029Z,40.72
2023-12-30T03:45:20.689Z,48.67
2023-12-30T03:46:17.419Z,49.05
2023-12-30T03:47:14.390Z,43.03
2023-12-30T03:48:11.174Z,42.10
2023-12-30T03:49:09.182Z,35.78
2023-12-30T03:50:06.205Z,41.78
2023-12-30T03:51:02.935Z,36.28
2023-12-30T03:51:59.612Z,36.40
2023-12-30T03:52:56.271Z,36.33
2023-12-30T03:53:53.064Z,38.45
2023-12-30T03:54:49.882Z,35.78
2023-12-30T03:55:46.511Z,43.58
2023-12-30T03:56:43.529Z,38.80
2023-12-30T03:57:40.166Z,50.58
2023-12-30T03:58:36.848Z,41.08
2023-12-30T03:59:33.455Z,41.80
2023-12-30T04:00:30.117Z,39.15
2023-12-30T04:01:27.713Z,46.90
2023-12-30T04:02:24.442Z,36.63
2023-12-30T04:03:21.255Z,40.42
2023-12-30T04:04:17.938Z,47.95
2023-12-30T04:05:14.682Z,45.50
2023-12-30T04:06:19.948Z,47.55
2023-12-30T04:07:16.649Z,41.63
2023-12-30T04:08:13.488Z,40.45
2023-12-30T04:09:10.144Z,41.30
2023-12-30T04:10:08.403Z,39.38
2023-12-30T04:11:05.266Z,36.60
2023-12-30T04:12:02.010Z,31.38
2023-12-30T04:12:58.738Z,30.75
2023-12-30T04:13:55.470Z,28.60
2023-12-30T04:14:52.542Z,28.67
2023-12-30T04:15:49.367Z,34.78
2023-12-30T04:16:46.103Z,31.75
2023-12-30T04:17:42.753Z,37.47
2023-12-30T04:18:39.663Z,44.67
2023-12-30T04:19:36.500Z,38.78
2023-12-30T04:20:33.266Z,31.70
2023-12-30T04:21:29.872Z,31.73
2023-12-30T04:22:28.731Z,39.60
2023-12-30T04:23:25.630Z,39.20
2023-12-30T04:24:23.096Z,41.08
2023-12-30T04:25:19.805Z,47.80
2023-12-30T04:26:16.571Z,36.72
2023-12-30T04:27:13.265Z,34.30
2023-12-30T04:28:09.989Z,41.28
2023-12-30T04:29:06.694Z,39.13
2023-12-30T04:30:03.863Z,44.45
2023-12-30T04:31:01.277Z,40.03
2023-12-30T04:31:58.006Z,38.10
2023-12-30T04:32:54.680Z,53.00
2023-12-30T04:33:51.424Z,51.28
2023-12-30T04:34:48.325Z,39.60
2023-12-30T04:35:45.556Z,36.83
2023-12-30T04:36:42.127Z,32.88
2023-12-30T04:37:38.738Z,49.42
2023-12-30T04:38:35.369Z,45.85
2023-12-30T04:39:31.993Z,41.20
2023-12-30T04:40:28.658Z,35.17
2023-12-30T04:41:25.598Z,31.75
2023-12-30T04:42:22.241Z,36.97
2023-12-30T04:43:19.028Z,36.20
2023-12-30T04:44:15.769Z,35.70
2023-12-30T04:45:14.101Z,47.85
2023-12-30T04:46:12.932Z,44.63
2023-12-30T04:47:09.643Z,41.45
2023-12-30T04:48:07.109Z,39.28
2023-12-30T04:49:04.292Z,40.17
2023-12-30T04:50:01.188Z,37.95
2023-12-30T04:50:57.912Z,35.38
2023-12-30T04:51:54.540Z,36.50
2023-12-30T04:52:51.135Z,35.80
2023-12-30T04:53:47.955Z,40.15
2023-12-30T04:54:44.760Z,33.63
2023-12-30T04:55:42.116Z,35.78
2023-12-30T04:56:38.714Z,41.25
2023-12-30T04:57:35.336Z,41.53
2023-12-30T04:58:32.497Z,41.58
2023-12-30T04:59:29.627Z,38.33
2023-12-30T05:00:26.426Z,43.17
2023-12-30T05:01:23.183Z,40.80
2023-12-30T05:02:19.879Z,45.13
2023-12-30T05:03:17.963Z,42.85
2023-12-30T05:04:14.850Z,39.83
2023-12-30T05:05:11.587Z,42.75
2023-12-30T05:06:08.281Z,62.83
2023-12-30T05:07:05.414Z,41.13
2023-12-30T05:08:05.258Z,42.33
2023-12-30T05:09:02.888Z,42.75
2023-12-30T05:09:59.630Z,38.45
2023-12-30T05:10:56.740Z,40.53
2023-12-30T05:11:53.431Z,38.75
2023-12-30T05:12:50.860Z,42.67
2023-12-30T05:13:47.710Z,43.33
2023-12-30T05:14:44.516Z,47.63
2023-12-30T05:15:41.122Z,43.38
2023-12-30T05:16:47.360Z,39.38
2023-12-30T05:17:44.842Z,44.38
2023-12-30T05:18:41.629Z,45.53
2023-12-30T05:19:38.450Z,42.70
2023-12-30T05:20:35.093Z,35.10
2023-12-30T05:21:31.715Z,39.65
2023-12-30T05:22:28.531Z,40.35
2023-12-30T05:23:25.185Z,44.05
2023-12-30T05:24:22.689Z,46.35
2023-12-30T05:25:19.536Z,48.08
2023-12-30T05:26:16.306Z,40.80
2023-12-30T05:27:12.876Z,40.00
2023-12-30T05:28:09.604Z,44.10
2023-12-30T05:29:06.261Z,44.33
2023-12-30T05:30:03.096Z,47.38
2023-12-30T05:31:00.551Z,51.97
2023-12-30T05:31:57.379Z,56.47
2023-12-30T05:32:54.040Z,58.55
2023-12-30T05:33:50.920Z,54.17
2023-12-30T05:34:47.651Z,48.42
2023-12-30T05:35:44.402Z,46.70
2023-12-30T05:36:41.940Z,57.92
2023-12-30T05:37:38.731Z,59.47
2023-12-30T05:38:35.384Z,56.30
2023-12-30T05:39:32.012Z,55.42
2023-12-30T05:40:28.630Z,54.75
2023-12-30T05:41:25.291Z,54.17
2023-12-30T05:42:22.043Z,49.97
2023-12-30T05:43:18.657Z,59.30
2023-12-30T05:44:15.434Z,54.80
2023-12-30T05:45:12.053Z,55.92
2023-12-30T05:46:14.984Z,57.22
2023-12-30T05:47:11.786Z,55.78
2023-12-30T05:48:09.595Z,60.30
2023-12-30T05:49:07.346Z,57.42
2023-12-30T05:50:04.446Z,58.35
2023-12-30T05:51:01.727Z,58.60
2023-12-30T05:51:58.353Z,56.00
2023-12-30T05:52:55.659Z,55.20
2023-12-30T05:53:52.357Z,61.72
2023-12-30T05:54:49.061Z,59.63
2023-12-30T05:55:45.743Z,70.32
2023-12-30T05:56:42.439Z,73.93
2023-12-30T05:57:39.117Z,78.32
2023-12-30T05:58:36.214Z,70.80
2023-12-30T05:59:33.054Z,71.28
2023-12-30T06:00:29.711Z,65.93
2023-12-30T06:01:26.613Z,75.80
2023-12-30T06:02:23.597Z,63.65
2023-12-30T06:03:21.117Z,62.97
2023-12-30T06:04:17.938Z,59.20
2023-12-30T06:05:14.539Z,62.33
2023-12-30T06:06:11.355Z,56.05
2023-12-30T06:07:09.327Z,53.63
2023-12-30T06:08:06.832Z,48.58
2023-12-30T06:09:03.839Z,53.95
2023-12-30T06:10:00.589Z,42.72
2023-12-30T06:10:57.267Z,47.95
2023-12-30T06:11:53.834Z,44.70
2023-12-30T06:12:50.656Z,47.22
2023-12-30T06:13:47.502Z,44.50
2023-12-30T06:14:44.161Z,42.42
2023-12-30T06:15:41.479Z,46.85
2023-12-30T06:16:38.100Z,38.03
2023-12-30T06:17:34.768Z,41.17
2023-12-30T06:18:34.525Z,51.50
2023-12-30T06:19:32.371Z,48.42
2023-12-30T06:20:29.087Z,40.50
2023-12-30T06:21:25.835Z,46.55
2023-12-30T06:22:22.611Z,41.25
2023-12-30T06:23:19.287Z,51.40
2023-12-30T06:24:15.968Z,42.17
2023-12-30T06:25:12.718Z,50.35
2023-12-30T06:26:09.314Z,53.80
2023-12-30T06:27:06.221Z,48.60
2023-12-30T06:28:02.948Z,55.72
2023-12-30T06:28:59.757Z,59.20
2023-12-30T06:29:56.553Z,55.40
2023-12-30T06:30:53.842Z,57.10
2023-12-30T06:31:51.247Z,59.22
2023-12-30T06:32:48.937Z,55.42
2023-12-30T06:33:45.717Z,63.00
2023-12-30T06:34:42.847Z,59.70
2023-12-30T06:35:39.576Z,56.47
2023-12-30T06:36:36.325Z,58.78
2023-12-30T06:37:33.087Z,69.88
2023-12-30T06:38:29.730Z,64.65
2023-12-30T06:39:26.338Z,62.20
2023-12-30T06:40:22.950Z,64.95
2023-12-30T06:41:22.199Z,57.92
2023-12-30T06:42:18.769Z,58.40
2023-12-30T06:43:15.565Z,58.28
2023-12-30T06:44:12.272Z,56.35
2023-12-30T06:45:09.506Z,52.28
2023-12-30T06:46:06.320Z,51.00
2023-12-30T06:47:02.922Z,47.67
2023-12-30T06:47:59.579Z,54.97
2023-12-30T06:48:56.316Z,64.85
2023-12-30T06:49:53.162Z,52.03
2023-12-30T06:50:49.935Z,61.25
2023-12-30T06:51:46.780Z,60.83
2023-12-30T06:52:43.373Z,58.22
2023-12-30T06:53:39.995Z,54.03
2023-12-30T06:54:36.653Z,61.72
2023-12-30T06:55:38.795Z,57.72
2023-12-30T06:56:42.134Z,65.10
2023-12-30T06:57:38.775Z,64.82
2023-12-30T06:58:36.227Z,62.67
2023-12-30T06:59:32.912Z,67.07
2023-12-30T07:00:29.551Z,64.32
2023-12-30T07:01:26.655Z,55.90
2023-12-30T07:02:23.335Z,63.47
2023-12-30T07:03:19.987Z,62.90
2023-12-30T07:04:16.799Z,55.55
2023-12-30T07:05:13.508Z,65.53
2023-12-30T07:06:10.254Z,55.30
2023-12-30T07:07:06.970Z,57.75
2023-12-30T07:08:03.763Z,56.08
2023-12-30T07:09:00.446Z,56.38
2023-12-30T07:09:57.186Z,52.10
2023-12-30T07:10:53.792Z,52.45
2023-12-30T07:11:50.431Z,49.78
2023-12-30T07:12:47.096Z,51.05
2023-12-30T07:13:44.685Z,48.10
2023-12-30T07:14:41.480Z,47.63
2023-12-30T07:15:38.135Z,45.78
2023-12-30T07:16:34.908Z,44.65
2023-12-30T07:17:31.592Z,51.17
2023-12-30T07:18:28.347Z,56.50
2023-12-30T07:19:25.149Z,47.67
2023-12-30T07:20:24.630Z,50.78
2023-12-30T07:21:21.357Z,44.63
2023-12-30T07:22:20.522Z,53.28
2023-12-30T07:23:17.155Z,43.65
2023-12-30T07:24:14.102Z,53.22
2023-12-30T07:25:10.738Z,42.92
2023-12-30T07:26:08.528Z,48.13
2023-12-30T07:27:06.293Z,44.30
2023-12-30T07:28:03.363Z,54.78
2023-12-30T07:29:00.501Z,48.65
2023-12-30T07:29:58.659Z,56.85
2023-12-30T07:30:56.049Z,58.78
2023-12-30T07:31:52.824Z,50.38
2023-12-30T07:32:49.530Z,44.95
2023-12-30T07:33:46.221Z,45.05
2023-12-30T07:34:43.044Z,42.65
2023-12-30T07:35:39.702Z,44.72
2023-12-30T07:36:36.366Z,45.88
2023-12-30T07:37:33.941Z,43.20
2023-12-30T07:38:32.138Z,46.88
2023-12-30T07:39:29.457Z,42.30
2023-12-30T07:40:26.361Z,50.85
2023-12-30T07:41:23.000Z,42.65
2023-12-30T07:42:21.361Z,45.75
2023-12-30T07:43:19.476Z,44.53
2023-12-30T07:44:16.370Z,44.05
2023-12-30T07:45:13.105Z,43.53
2023-12-30T07:46:09.829Z,47.95
2023-12-30T07:47:08.318Z,49.97
2023-12-30T07:48:05.578Z,47.47
2023-12-30T07:49:02.271Z,35.28
2023-12-30T07:49:59.008Z,35.15
2023-12-30T07:50:55.892Z,40.92
2023-12-30T07:51:54.370Z,34.08
2023-12-30T07:52:51.232Z,39.88
2023-12-30T07:53:47.956Z,39.08
2023-12-30T07:54:44.535Z,36.75
2023-12-30T07:55:41.298Z,34.08
2023-12-30T07:56:37.917Z,40.78
2023-12-30T07:57:34.597Z,40.95
2023-12-30T07:58:31.299Z,46.25
2023-12-30T07:59:27.940Z,58.85
2023-12-30T08:00:24.678Z,47.28
2023-12-30T08:01:21.408Z,42.08
2023-12-30T08:02:18.131Z,37.25
2023-12-30T08:03:14.869Z,44.20
2023-12-30T08:04:12.300Z,40.55
2023-12-30T08:05:09.216Z,39.92
2023-12-30T08:06:06.190Z,36.63
2023-12-30T08:07:03.044Z,38.15
2023-12-30T08:07:59.799Z,41.30
2023-12-30T08:08:56.357Z,34.58
2023-12-30T08:09:52.952Z,37.92
2023-12-30T08:10:49.583Z,41.13
2023-12-30T08:11:54.957Z,46.10
2023-12-30T08:12:58.491Z,41.75
2023-12-30T08:13:55.277Z,41.53
2023-12-30T08:14:51.923Z,46.35
2023-12-30T08:15:48.639Z,39.22
2023-12-30T08:16:45.624Z,45.65
2023-12-30T08:17:42.391Z,47.85
2023-12-30T08:18:39.308Z,47.20
2023-12-30T08:19:36.052Z,48.03
2023-12-30T08:20:32.738Z,51.45
2023-12-30T08:21:29.871Z,45.50
2023-12-30T08:22:26.502Z,43.78
2023-12-30T08:23:23.139Z,52.08
2023-12-30T08:24:20.700Z,51.95
2023-12-30T08:25:17.637Z,47.20
2023-12-30T08:26:14.301Z,50.30
2023-12-30T08:27:11.025Z,47.80
2023-12-30T08:28:07.687Z,47.58
2023-12-30T08:29:05.864Z,53.22
2023-12-30T08:30:02.545Z,42.05
2023-12-30T08:31:57.017Z,52.58
2023-12-30T08:32:53.686Z,54.67
2023-12-30T08:33:52.258Z,56.88
2023-12-30T08:34:48.958Z,57.50
2023-12-30T08:35:45.720Z,43.33
2023-12-30T08:36:44.276Z,45.20
2023-12-30T08:37:41.180Z,52.80
2023-12-30T08:38:37.979Z,47.80
2023-12-30T08:39:36.827Z,49.65
2023-12-30T08:40:36.174Z,56.30
2023-12-30T08:41:35.171Z,65.15
2023-12-30T08:42:36.023Z,69.60
2023-12-30T08:43:32.719Z,55.17
2023-12-30T08:44:29.508Z,60.25
2023-12-30T08:45:26.109Z,51.22
2023-12-30T08:46:23.264Z,55.60
2023-12-30T08:47:20.616Z,49.70
2023-12-30T08:48:17.825Z,53.83
2023-12-30T08:49:14.578Z,53.20
2023-12-30T08:50:11.620Z,62.17
2023-12-30T08:51:08.243Z,59.15
2023-12-30T08:52:06.381Z,61.03
2023-12-30T08:53:03.472Z,50.38
2023-12-30T08:54:00.478Z,53.67
2023-12-30T08:54:57.347Z,48.85
2023-12-30T08:55:56.456Z,61.85
2023-12-30T08:56:55.267Z,52.00
2023-12-30T08:57:52.032Z,52.15
2023-12-30T08:58:48.675Z,62.55
2023-12-30T08:59:45.304Z,59.60
2023-12-30T09:00:42.389Z,56.03
2023-12-30T09:01:39.149Z,60.22
2023-12-30T09:02:47.321Z,60.72
2023-12-30T09:03:44.163Z,65.15
2023-12-30T09:04:40.852Z,64.18
2023-12-30T09:05:37.706Z,66.70
2023-12-30T09:06:34.363Z,69.22
2023-12-30T09:07:32.193Z,71.25
2023-12-30T09:08:28.892Z,67.55
2023-12-30T09:09:26.005Z,69.18
2023-12-30T09:10:22.632Z,66.70
2023-12-30T09:11:23.577Z,65.15
2023-12-30T09:12:20.265Z,74.95
2023-12-30T09:13:16.891Z,72.95
2023-12-30T09:14:14.573Z,68.65
2023-12-30T09:15:11.359Z,68.55
2023-12-30T09:16:07.981Z,74.38
2023-12-30T09:17:04.909Z,80.95
2023-12-30T09:18:01.678Z,74.15
2023-12-30T09:18:58.499Z,80.65
2023-12-30T09:19:55.659Z,80.13
2023-12-30T09:20:52.446Z,77.85
2023-12-30T09:21:49.068Z,79.40
2023-12-30T09:22:45.686Z,74.20
2023-12-30T09:23:42.658Z,76.70
2023-12-30T09:24:39.527Z,72.43
2023-12-30T09:25:36.254Z,72.53
2023-12-30T09:26:32.836Z,71.97
2023-12-30T09:27:29.536Z,75.45
2023-12-30T09:28:26.159Z,73.57
2023-12-30T09:29:22.809Z,76.70
2023-12-30T09:30:19.582Z,84.57
2023-12-30T09:31:17.324Z,79.80
2023-12-30T09:32:14.112Z,65.82
2023-12-30T09:33:12.356Z,77.40
2023-12-30T09:34:09.835Z,74.57
2023-12-30T09:35:07.409Z,76.93
2023-12-30T09:36:05.990Z,84.30
2023-12-30T09:37:03.052Z,79.88
2023-12-30T09:37:59.696Z,75.75
2023-12-30T09:38:56.347Z,72.30
2023-12-30T09:39:53.086Z,64.00
2023-12-30T09:40:53.677Z,59.42
2023-12-30T09:41:50.330Z,65.07
2023-12-30T09:42:50.946Z,61.10
2023-12-30T09:43:49.185Z,58.60
2023-12-30T09:44:47.950Z,63.05
2023-12-30T09:45:44.979Z,63.40
2023-12-30T09:46:41.782Z,47.97
2023-12-30T09:47:39.654Z,52.10
2023-12-30T09:48:37.812Z,36.40
2023-12-30T09:49:37.043Z,26.45
2023-12-30T09:50:33.826Z,23.52
2023-12-30T09:51:32.325Z,26.73
2023-12-30T09:52:29.038Z,21.27
2023-12-30T09:53:26.214Z,25.73
2023-12-30T09:54:31.392Z,23.85
2023-12-30T09:55:31.341Z,52.90
2023-12-30T09:56:28.060Z,60.92
2023-12-30T09:57:24.800Z,69.50
2023-12-30T09:58:23.668Z,48.45
2023-12-30T09:59:20.736Z,35.53
2023-12-30T10:00:20.045Z,26.55
2023-12-30T10:01:17.772Z,32.70
2023-12-30T10:02:14.864Z,34.88
2023-12-30T10:03:12.738Z,73.80
2023-12-30T10:04:09.596Z,76.90
2023-12-30T10:05:07.868Z,113.22
2023-12-30T10:06:05.849Z,152.23
2023-12-30T10:07:02.965Z,76.68
2023-12-30T10:08:04.840Z,77.88
2023-12-30T10:09:02.004Z,104.05
2023-12-30T10:09:58.696Z,83.72
2023-12-30T10:10:55.425Z,77.22
2023-12-30T10:11:52.157Z,89.15
2023-12-30T10:12:48.817Z,85.05
2023-12-30T10:13:45.468Z,74.03
2023-12-30T10:14:42.293Z,78.18
2023-12-30T10:15:40.287Z,71.47
2023-12-30T10:16:37.309Z,69.90
2023-12-30T10:17:34.603Z,67.78
2023-12-30T10:18:32.656Z,67.72
2023-12-30T10:19:29.378Z,64.75
2023-12-30T10:20:26.039Z,66.15
2023-12-30T10:21:22.862Z,61.28
2023-12-30T10:22:19.512Z,61.05
2023-12-30T10:23:16.229Z,66.50
2023-12-30T10:24:12.980Z,65.03
2023-12-30T10:25:10.293Z,61.28
2023-12-30T10:26:07.539Z,61.47
2023-12-30T10:27:06.040Z,72.05
2023-12-30T10:28:03.885Z,65.75
2023-12-30T10:29:01.182Z,67.90
2023-12-30T10:30:00.693Z,76.43
2023-12-30T10:31:05.737Z,72.68
2023-12-30T10:32:05.030Z,73.50
2023-12-30T10:33:10.238Z,70.65
2023-12-30T10:34:07.500Z,82.55
2023-12-30T10:35:05.252Z,83.57
2023-12-30T10:36:01.863Z,71.97
2023-12-30T10:36:59.265Z,72.03
2023-12-30T10:37:56.341Z,82.55
2023-12-30T10:38:55.234Z,73.40
2023-12-30T10:39:54.316Z,73.90
2023-12-30T10:40:55.530Z,77.15
2023-12-30T10:41:52.650Z,74.55
2023-12-30T10:42:49.310Z,71.65
2023-12-30T10:43:46.158Z,73.72
2023-12-30T10:44:43.518Z,69.75
2023-12-30T10:45:40.810Z,70.07
2023-12-30T10:46:39.367Z,69.68
2023-12-30T10:47:41.093Z,64.13
2023-12-30T10:48:47.305Z,65.90
2023-12-30T10:49:55.629Z,63.65
2023-12-30T10:50:56.246Z,62.45
2023-12-30T10:51:55.166Z,65.88
2023-12-30T10:53:01.325Z,57.75
2023-12-30T10:54:08.815Z,49.75
2023-12-30T10:55:15.893Z,43.88
2023-12-30T10:56:17.307Z,44.03
2023-12-30T10:57:18.756Z,45.55
2023-12-30T10:58:21.066Z,43.78
2023-12-30T10:59:19.700Z,57.20
2023-12-30T11:00:21.572Z,41.90
2023-12-30T11:01:19.243Z,56.83
2023-12-30T11:02:16.730Z,72.32
2023-12-30T11:03:13.669Z,71.53
2023-12-30T11:04:15.895Z,60.75
2023-12-30T11:05:20.103Z,58.20
2023-12-30T11:06:24.309Z,65.80
2023-12-30T11:07:22.074Z,60.80
2023-12-30T11:08:19.149Z,63.50
2023-12-30T11:09:16.120Z,62.70
2023-12-30T11:10:20.863Z,62.40
2023-12-30T11:11:20.708Z,61.58
2023-12-30T11:12:17.348Z,67.20
2023-12-30T11:13:14.124Z,63.20
2023-12-30T11:14:16.237Z,65.25
2023-12-30T11:15:32.124Z,63.22
2023-12-30T11:16:34.516Z,65.75
2023-12-30T11:17:35.061Z,62.88
2023-12-30T11:18:49.097Z,70.22
2023-12-30T11:19:46.989Z,60.30
2023-12-30T11:20:47.536Z,61.58
2023-12-30T11:21:47.875Z,48.85
2023-12-30T11:22:44.672Z,48.40
2023-12-30T11:23:41.381Z,52.10
2023-12-30T11:24:43.522Z,62.55
2023-12-30T11:25:49.682Z,61.05
2023-12-30T11:26:47.669Z,55.05
2023-12-30T11:28:07.743Z,47.67
2023-12-30T11:29:05.348Z,78.22
2023-12-30T11:30:01.927Z,61.67
2023-12-30T11:31:01.324Z,55.22
2023-12-30T11:32:02.452Z,58.22
2023-12-30T11:32:59.657Z,78.80
2023-12-30T11:33:58.289Z,73.82
2023-12-30T11:34:55.993Z,48.80
2023-12-30T11:35:55.629Z,67.95
2023-12-30T11:36:54.307Z,78.32
2023-12-30T11:37:55.799Z,64.07
2023-12-30T11:38:55.929Z,72.40
2023-12-30T11:39:57.977Z,66.10
2023-12-30T11:40:58.608Z,76.55
2023-12-30T11:41:58.122Z,40.80
2023-12-30T11:42:55.468Z,47.15
2023-12-30T11:43:53.040Z,37.60
2023-12-30T11:44:50.950Z,42.83
2023-12-30T11:45:48.248Z,33.88
2023-12-30T11:46:44.959Z,40.17
2023-12-30T11:47:41.772Z,34.33
2023-12-30T11:48:38.513Z,38.83
2023-12-30T11:49:36.544Z,41.13
2023-12-30T11:50:33.273Z,38.88
2023-12-30T11:51:31.543Z,44.45
2023-12-30T11:52:28.153Z,41.83
2023-12-30T11:53:24.792Z,41.25
2023-12-30T11:54:22.501Z,36.22
2023-12-30T11:55:19.222Z,36.88
2023-12-30T11:56:17.470Z,34.13
2023-12-30T11:57:16.070Z,30.88
2023-12-30T11:58:12.782Z,29.92
2023-12-30T11:59:09.888Z,36.85
2023-12-30T12:00:09.131Z,39.08
2023-12-30T12:01:06.985Z,27.92
2023-12-30T12:02:12.692Z,29.05
2023-12-30T12:03:09.503Z,26.10
2023-12-30T12:04:06.297Z,33.00
2023-12-30T12:05:03.138Z,33.08
2023-12-30T12:06:00.339Z,30.77
2023-12-30T12:06:57.041Z,34.20
2023-12-30T12:07:53.738Z,45.10
2023-12-30T12:08:50.349Z,37.20
2023-12-30T12:09:47.082Z,34.33
2023-12-30T12:10:43.787Z,29.63
2023-12-30T12:11:40.532Z,36.03
2023-12-30T12:12:43.540Z,34.53
2023-12-30T12:13:41.238Z,43.83
2023-12-30T12:14:38.222Z,38.60
2023-12-30T12:15:34.897Z,34.60
2023-12-30T12:16:33.817Z,32.83
2023-12-30T12:17:31.212Z,26.67
2023-12-30T12:18:27.981Z,32.03
2023-12-30T12:19:26.707Z,31.48
2023-12-30T12:20:25.263Z,32.78
2023-12-30T12:21:22.186Z,26.70
2023-12-30T12:22:19.068Z,25.67